Time;durP1;ratioP1;P1;durP2;ratioP2;P2;SDS_P1;SDS_P2;PMS_P1;PMS_P2;Temp;Humidity;BMP_temperature;BMP_pressure;BME280_temperature;BME280_humidity;BME280_pressure;Samples;Min_cycle;Max_cycle;Signal;HPM_P1;HPM_P2
2023/01/04 00:01:16;;;;;;;28.67;23.88;;;;;;;6.74;100.00;97094.31;5088156;28;20043;-68
2023/01/04 00:03:42;;;;;;;23.17;21.02;;;;;;;6.73;100.00;97106.56;5084912;28;20060;-69
2023/01/04 00:06:10;;;;;;;27.50;24.65;;;;;;;6.73;100.00;97093.47;5085750;28;20043;-68
2023/01/04 00:08:36;;;;;;;46.83;37.90;;;;;;;6.71;100.00;97094.47;5085730;28;20093;-68
2023/01/04 00:11:03;;;;;;;32.60;27.65;;;;;;;6.73;100.00;97100.47;5083851;28;20040;-67
2023/01/04 00:13:29;;;;;;;37.63;29.95;;;;;;;6.73;100.00;97105.72;5085644;28;20032;-69
2023/01/04 00:15:55;;;;;;;27.70;24.77;;;;;;;6.73;100.00;97100.47;5083908;28;20122;-68
2023/01/04 00:18:21;;;;;;;31.27;27.55;;;;;;;6.69;100.00;97104.19;5088037;28;20028;-67
2023/01/04 00:20:46;;;;;;;29.77;25.20;;;;;;;6.62;100.00;97108.91;5085896;28;20034;-68
2023/01/04 00:23:11;;;;;;;26.65;23.73;;;;;;;6.59;100.00;97106.47;5086717;28;20054;-68
2023/01/04 00:25:37;;;;;;;33.30;29.75;;;;;;;6.60;100.00;97105.53;5084782;28;20077;-72
2023/01/04 00:28:03;;;;;;;52.58;42.78;;;;;;;6.62;100.00;97102.84;5083732;28;20085;-66
2023/01/04 00:30:29;;;;;;;50.95;41.85;;;;;;;6.62;100.00;97097.59;5085893;28;20032;-67
2023/01/04 00:32:56;;;;;;;40.58;32.42;;;;;;;6.62;100.00;97102.84;5083532;28;20427;-67
2023/01/04 00:35:21;;;;;;;35.03;30.20;;;;;;;6.63;100.00;97096.69;5084149;28;20061;-67
2023/01/04 00:37:46;;;;;;;37.50;33.55;;;;;;;6.65;100.00;97106.16;5083026;28;20401;-67
2023/01/04 00:40:12;;;;;;;34.88;31.13;;;;;;;6.66;100.00;97104.38;5082364;28;20490;-66
2023/01/04 00:42:37;;;;;;;33.92;30.33;;;;;;;6.65;100.00;97108.78;5084975;28;20020;-67
2023/01/04 00:45:03;;;;;;;30.38;27.13;;;;;;;6.65;100.00;97107.91;5084908;28;20036;-77
2023/01/04 00:47:28;;;;;;;39.42;34.00;;;;;;;6.67;100.00;97106.91;5084241;28;20028;-66
2023/01/04 00:49:53;;;;;;;90.88;68.40;;;;;;;6.66;100.00;97115.69;5083186;28;20055;-66
2023/01/04 00:52:19;;;;;;;40.35;35.97;;;;;;;6.65;100.00;97107.91;5084599;28;20100;-67
2023/01/04 00:54:44;;;;;;;29.33;26.23;;;;;;;6.65;100.00;97118.38;5084342;28;20036;-66
2023/01/04 00:57:09;;;;;;;29.10;25.98;;;;;;;6.65;100.00;97111.38;5083038;28;20043;-66
2023/01/04 00:59:35;;;;;;;28.73;25.77;;;;;;;6.62;100.00;97114.13;5082442;28;20112;-67
2023/01/04 01:02:00;;;;;;;28.88;26.00;;;;;;;6.61;100.00;97117.69;5084414;28;20118;-66
2023/01/04 01:04:25;;;;;;;27.65;22.27;;;;;;;6.61;100.00;97124.72;5083746;28;20047;-66
2023/01/04 01:06:51;;;;;;;17.00;15.40;;;;;;;6.65;100.00;97137.56;5086950;28;20413;-65
2023/01/04 01:09:17;;;;;;;14.90;13.38;;;;;;;6.61;100.00;97140.41;5086375;28;20051;-72
2023/01/04 01:11:42;;;;;;;45.70;32.85;;;;;;;6.62;100.00;97132.47;5083494;28;20036;-73
2023/01/04 01:14:14;;;;;;;21.08;18.40;;;;;;;6.58;100.00;97129.19;5064960;28;20158;-72
2023/01/04 01:16:40;;;;;;;20.02;18.02;;;;;;;6.61;100.00;97132.56;5083685;28;20510;-73
2023/01/04 01:19:05;;;;;;;23.13;19.17;;;;;;;6.59;100.00;97135.25;5075907;28;20112;-72
2023/01/04 01:21:31;;;;;;;20.63;18.73;;;;;;;6.57;100.00;97142.34;5086717;28;20032;-73
2023/01/04 01:23:57;;;;;;;20.60;18.50;;;;;;;6.57;100.00;97137.97;5086626;28;20085;-72
2023/01/04 01:26:24;;;;;;;20.33;18.30;;;;;;;6.59;100.00;97138.72;5086236;28;20126;-68
2023/01/04 01:28:50;;;;;;;18.95;16.85;;;;;;;6.63;100.00;97141.16;5085283;28;20040;-68
2023/01/04 01:31:18;;;;;;;18.20;16.40;;;;;;;6.62;100.00;97139.47;5087040;28;20043;-69
2023/01/04 01:33:45;;;;;;;15.05;12.38;;;;;;;6.61;100.00;97143.03;5082777;28;20036;-68
2023/01/04 01:36:12;;;;;;;15.10;13.60;;;;;;;6.58;100.00;97152.72;5086953;28;20043;-69
2023/01/04 01:38:39;;;;;;;14.90;13.23;;;;;;;6.58;100.00;97147.50;5086330;28;20032;-69
2023/01/04 01:41:06;;;;;;;12.30;11.02;;;;;;;6.61;100.00;97153.50;5087260;28;20028;-68
2023/01/04 01:44:22;;;;;;;15.98;14.30;;;;;;;6.62;100.00;97149.94;5087424;28;20104;-76
2023/01/04 01:46:51;;;;;;;38.67;28.90;;;;;;;6.63;100.00;97156.88;5051652;28;20042;-64
2023/01/04 01:49:34;;;;;;;33.90;26.00;;;;;;;6.63;100.00;97146.41;5082499;28;20036;-64
2023/01/04 01:52:03;;;;;;;36.88;28.58;;;;;;;6.65;100.00;97149.78;5078813;28;20043;-64
2023/01/04 01:54:37;;;;;;;51.85;35.60;;;;;;;6.61;100.00;97156.94;5084682;28;20039;-65
2023/01/04 01:57:06;;;;;;;28.10;22.30;;;;;;;6.59;100.00;97156.19;5080831;28;20029;-65
2023/01/04 01:59:35;;;;;;;15.45;13.95;;;;;;;6.55;100.00;97142.44;5083629;28;20042;-65
2023/01/04 02:02:01;;;;;;;15.70;14.13;;;;;;;6.56;100.00;97140.66;5056147;28;20020;-65
2023/01/04 02:04:26;;;;;;;17.60;14.85;;;;;;;6.51;100.00;97145.28;5042073;28;1248027;-65
2023/01/04 02:06:55;;;;;;;13.30;11.98;;;;;;;6.49;100.00;97142.72;5080301;28;20040;-64
2023/01/04 02:09:22;;;;;;;15.35;12.95;;;;;;;6.47;100.00;97143.75;5086670;28;20502;-63
2023/01/04 02:11:47;;;;;;;11.20;10.20;;;;;;;6.50;100.00;97139.19;5089109;28;20024;-64
2023/01/04 02:14:28;;;;;;;49.20;27.83;;;;;;;6.50;100.00;97141.81;5090748;28;20517;-64
2023/01/04 02:17:06;;;;;;;90.43;50.28;;;;;;;6.52;100.00;97142.59;5084985;28;20036;-64
2023/01/04 02:19:59;;;;;;;35.00;26.55;;;;;;;6.55;100.00;97152.91;5089091;28;20051;-64
2023/01/04 02:22:40;;;;;;;26.45;20.75;;;;;;;6.56;100.00;97151.09;5081621;28;20055;-64
2023/01/04 02:25:33;;;;;;;26.55;21.85;;;;;;;6.52;100.00;97145.22;5085037;28;20502;-71
2023/01/04 02:28:12;;;;;;;19.60;17.55;;;;;;;6.45;100.00;97147.31;5089170;28;20043;-72
2023/01/04 02:30:43;;;;;;;17.73;16.02;;;;;;;6.47;100.00;97157.66;5084447;28;20056;-72
2023/01/04 02:33:34;;;;;;;17.80;16.00;;;;;;;6.47;100.00;97149.81;5085397;28;20048;-72
2023/01/04 02:36:16;;;;;;;18.02;15.93;;;;;;;6.47;100.00;97147.19;5084694;28;20055;-72
2023/01/04 02:38:50;;;;;;;16.25;14.75;;;;;;;6.46;100.00;97145.50;5087010;28;20509;-72
2023/01/04 02:41:31;;;;;;;16.55;15.02;;;;;;;6.46;100.00;97153.38;5085768;28;20040;-67
2023/01/04 02:47:03;;;;;;;63.53;39.83;;;;;;;6.48;100.00;97151.50;5086712;28;20558;-65
2023/01/04 02:52:13;;;;;;;21.70;19.40;;;;;;;6.51;100.00;97159.19;5091208;28;20563;-65
2023/01/04 02:54:40;;;;;;;26.65;19.08;;;;;;;6.51;100.00;97156.56;5081217;28;20032;-65
2023/01/04 02:57:14;;;;;;;24.50;21.08;;;;;;;6.49;100.00;97158.44;5088913;28;20032;-65
2023/01/04 03:00:17;;;;;;;22.58;18.90;;;;;;;6.46;100.00;97155.97;5091912;28;20505;-64
2023/01/04 03:06:27;;;;;;;13.65;12.38;;;;;;;6.37;100.00;97156.47;5029702;28;20046;-64
2023/01/04 03:09:13;;;;;;;10.75;9.75;;;;;;;6.37;100.00;97162.53;5083078;28;20028;-65
2023/01/04 03:14:51;;;;;;;11.95;10.75;;;;;;;6.37;100.00;97157.31;5088508;28;20047;-65
2023/01/04 03:17:22;;;;;;;28.60;22.23;;;;;;;6.39;100.00;97162.47;5075844;28;20037;-65
2023/01/04 03:19:52;;;;;;;15.70;13.98;;;;;;;6.36;100.00;97158.22;5084260;28;20044;-66
2023/01/04 03:36:51;;;;;;;11.73;10.52;;;;;;;6.35;100.00;97153.09;5075101;28;20031;-64
2023/01/04 03:50:55;;;;;;;32.77;25.40;;;;;;;6.32;100.00;97143.63;5090460;28;20105;-76
2023/01/04 03:53:22;;;;;;;33.20;23.52;;;;;;;6.33;100.00;97141.88;5087369;28;20036;-76
2023/01/04 03:55:49;;;;;;;25.08;21.88;;;;;;;6.33;100.00;97139.25;5089021;28;20036;-77
2023/01/04 03:58:15;;;;;;;23.70;17.33;;;;;;;6.30;100.00;97135.00;5083687;28;20023;-68
2023/01/04 04:00:41;;;;;;;20.67;17.50;;;;;;;6.27;100.00;97137.78;5086039;28;20040;-72
2023/01/04 04:03:07;;;;;;;13.85;11.30;;;;;;;6.25;100.00;97131.81;5090890;28;20346;-72
2023/01/04 04:08:28;;;;;;;11.63;10.30;;;;;;;6.19;100.00;97127.72;5090123;28;20100;-72
2023/01/04 04:13:43;;;;;;;13.82;9.82;;;;;;;6.09;100.00;97132.59;5079341;28;20100;-72
2023/01/04 04:16:08;;;;;;;10.30;9.30;;;;;;;6.05;100.00;97120.59;5087333;28;20040;-72
2023/01/04 04:18:34;;;;;;;11.30;9.18;;;;;;;6.06;100.00;97116.19;5078950;28;20059;-64
2023/01/04 04:20:59;;;;;;;7.78;6.18;;;;;;;6.04;100.00;97115.44;5088459;28;20067;-77
2023/01/04 04:23:24;;;;;;;5.35;4.88;;;;;;;6.03;100.00;97117.22;5080836;28;20051;-77
2023/01/04 04:25:50;;;;;;;7.20;6.30;;;;;;;6.00;100.00;97112.94;5087311;28;20044;-77
2023/01/04 04:28:15;;;;;;;6.75;6.22;;;;;;;5.98;100.00;97114.78;5088441;28;20029;-76
2023/01/04 04:30:40;;;;;;;7.05;6.45;;;;;;;5.97;100.00;97113.09;5088979;28;20035;-76
2023/01/04 04:33:06;;;;;;;7.93;7.10;;;;;;;5.93;100.00;97108.97;5089872;28;20032;-77
2023/01/04 04:35:31;;;;;;;8.32;7.38;;;;;;;5.89;100.00;97115.28;5084273;28;20032;-77
2023/01/04 04:37:56;;;;;;;5.35;4.95;;;;;;;5.85;100.00;97113.72;5066891;28;20024;-68
2023/01/04 04:43:07;;;;;;;7.60;5.55;;;;;;;5.79;100.00;97114.91;5085158;28;20093;-68
2023/01/04 04:45:32;;;;;;;5.75;5.35;;;;;;;5.74;100.00;97115.13;5088856;28;20108;-68
2023/01/04 04:47:57;;;;;;;6.07;5.32;;;;;;;5.64;100.00;97116.50;5085723;28;20119;-69
2023/01/04 04:50:23;;;;;;;5.00;4.57;;;;;;;5.55;100.00;97106.50;5086086;28;20032;-69
2023/01/04 04:52:48;;;;;;;5.82;4.90;;;;;;;5.47;100.00;97103.44;5073410;28;20039;-68
2023/01/04 04:55:13;;;;;;;5.07;4.70;;;;;;;5.41;100.00;97113.25;5088711;28;20055;-68
2023/01/04 04:57:39;;;;;;;4.85;4.53;;;;;;;5.39;100.00;97119.47;5085211;28;20036;-66
2023/01/04 05:00:05;;;;;;;7.05;4.78;;;;;;;5.33;100.00;97118.00;5087213;28;20036;-65
2023/01/04 05:02:30;;;;;;;6.47;5.45;;;;;;;5.41;100.00;97115.84;5083510;28;20119;-65
2023/01/04 05:04:55;;;;;;;6.65;6.05;;;;;;;5.33;100.00;97125.84;5080298;28;20043;-65
2023/01/04 05:07:21;;;;;;;6.43;5.65;;;;;;;5.28;100.00;97127.84;5082016;28;20032;-65
2023/01/04 05:09:46;;;;;;;5.13;4.78;;;;;;;5.22;100.00;97125.53;5085240;28;20062;-65
2023/01/04 05:14:55;;;;;;;9.07;6.82;;;;;;;5.18;100.00;97123.94;5086999;28;20031;-63
2023/01/04 05:17:21;;;;;;;12.38;9.80;;;;;;;5.14;100.00;97131.09;5088842;28;20044;-64
2023/01/04 05:19:46;;;;;;;12.98;9.98;;;;;;;5.16;100.00;97126.66;5088679;28;20036;-63
2023/01/04 05:22:11;;;;;;;17.00;10.80;;;;;;;5.16;100.00;97124.88;5088209;28;20102;-63
2023/01/04 05:24:37;;;;;;;11.77;9.77;;;;;;;5.19;100.00;97123.03;5088380;28;20119;-63
2023/01/04 05:27:02;;;;;;;11.23;9.75;;;;;;;5.16;100.00;97122.25;5081616;28;20038;-64
2023/01/04 05:32:11;;;;;;;8.80;7.55;;;;;;;5.12;100.00;97138.16;5088153;28;20509;-64
2023/01/04 05:34:37;;;;;;;8.70;7.15;;;;;;;5.07;100.00;97127.06;5085953;28;20044;-67
2023/01/04 05:37:02;;;;;;;7.95;7.00;;;;;;;5.10;100.00;97140.00;5082362;28;20031;-78
2023/01/04 05:39:29;;;;;;;8.57;7.88;;;;;;;5.12;100.00;97141.59;5084402;28;20572;-70
2023/01/04 05:44:39;;;;;;;14.55;9.18;;;;;;;5.20;100.00;97149.09;5087460;28;20039;-70
2023/01/04 05:47:04;;;;;;;7.70;7.05;;;;;;;5.23;100.00;97140.28;5092402;28;20040;-69
2023/01/04 05:49:29;;;;;;;7.80;7.10;;;;;;;5.23;100.00;97148.09;5091847;28;20046;-71
2023/01/04 05:51:55;;;;;;;7.20;6.60;;;;;;;5.20;100.00;97145.66;5092285;28;20109;-71
2023/01/04 05:54:20;;;;;;;6.35;5.75;;;;;;;5.15;100.00;97146.69;5091364;28;20463;-68
2023/01/04 05:56:45;;;;;;;7.45;6.65;;;;;;;5.14;100.00;97142.38;5092455;28;20463;-65
2023/01/04 05:59:11;;;;;;;6.97;6.35;;;;;;;5.15;100.00;97149.28;5088746;28;20499;-70
2023/01/04 06:01:36;;;;;;;6.93;6.20;;;;;;;5.15;100.00;97151.91;5087002;28;20623;-69
2023/01/04 06:04:01;;;;;;;6.28;5.78;;;;;;;5.13;100.00;97145.91;5088391;28;20565;-69
2023/01/04 06:06:27;;;;;;;6.28;5.78;;;;;;;5.14;100.00;97154.59;5091326;28;20032;-69
2023/01/04 06:08:52;;;;;;;9.10;8.27;;;;;;;5.18;100.00;97150.91;5086864;28;20040;-67
2023/01/04 06:11:17;;;;;;;10.40;7.20;;;;;;;5.20;100.00;97153.47;5089309;28;20396;-68
2023/01/04 06:13:43;;;;;;;7.13;6.43;;;;;;;5.18;100.00;97170.94;5086770;28;20062;-68
2023/01/04 06:16:08;;;;;;;6.60;5.90;;;;;;;5.13;100.00;97173.81;5091088;28;20028;-68
2023/01/04 06:18:33;;;;;;;5.65;5.22;;;;;;;5.11;100.00;97175.63;5083546;28;20036;-66
2023/01/04 06:20:59;;;;;;;7.03;6.43;;;;;;;5.10;100.00;97174.78;5078961;28;20039;-66
2023/01/04 06:23:24;;;;;;;6.68;6.15;;;;;;;5.14;100.00;97184.16;5088388;28;20043;-66
2023/01/04 06:25:49;;;;;;;6.45;5.88;;;;;;;5.18;100.00;97191.84;5089715;28;20043;-66
2023/01/04 06:28:15;;;;;;;6.30;5.80;;;;;;;5.19;100.00;97189.16;5088906;28;20025;-66
2023/01/04 06:30:40;;;;;;;6.50;5.90;;;;;;;5.18;100.00;97192.69;5089821;28;20044;-66
2023/01/04 06:33:05;;;;;;;7.07;6.47;;;;;;;5.16;100.00;97192.75;5078794;28;20141;-68
2023/01/04 06:35:31;;;;;;;8.13;6.57;;;;;;;5.12;100.00;97196.44;5092728;28;20482;-68
2023/01/04 06:37:56;;;;;;;7.22;6.32;;;;;;;5.09;100.00;97193.97;5092704;28;20413;-66
2023/01/04 06:40:21;;;;;;;8.80;7.00;;;;;;;5.08;100.00;97191.41;5092401;28;20089;-66
2023/01/04 06:42:47;;;;;;;8.30;7.00;;;;;;;5.06;100.00;97190.66;5091621;28;20394;-67
2023/01/04 06:45:14;;;;;;;10.35;8.25;;;;;;;5.01;100.00;97189.09;5090623;28;20410;-66
2023/01/04 06:47:40;;;;;;;12.63;10.80;;;;;;;4.97;100.00;97202.34;5078511;28;20498;-65
2023/01/04 06:50:05;;;;;;;18.42;11.85;;;;;;;4.94;100.00;97197.28;5081900;28;20035;-66
2023/01/04 06:52:31;;;;;;;19.90;15.73;;;;;;;4.89;100.00;97194.91;5074382;28;20122;-64
2023/01/04 06:54:56;;;;;;;18.95;12.70;;;;;;;4.80;100.00;97192.69;5083308;28;20024;-68
2023/01/04 06:57:21;;;;;;;17.27;14.07;;;;;;;4.74;100.00;97193.81;5083749;28;20290;-73
2023/01/04 06:59:47;;;;;;;16.83;12.88;;;;;;;4.68;100.00;97194.94;5086214;28;20032;-72
2023/01/04 07:02:14;;;;;;;15.63;12.88;;;;;;;4.59;100.00;97198.81;5076954;28;20073;-71
2023/01/04 07:04:40;;;;;;;14.30;12.32;;;;;;;4.50;100.00;97196.59;5073218;28;20048;-71
2023/01/04 07:07:05;;;;;;;17.65;14.52;;;;;;;4.45;100.00;97201.16;5075345;28;20047;-72
2023/01/04 07:09:31;;;;;;;21.20;18.17;;;;;;;4.41;100.00;97203.03;5074018;28;20040;-73
2023/01/04 07:11:57;;;;;;;34.13;24.95;;;;;;;4.39;100.00;97204.03;5077399;28;20027;-73
2023/01/04 07:14:22;;;;;;;25.35;20.52;;;;;;;4.34;100.00;97204.22;5073832;28;20525;-68
2023/01/04 07:16:48;;;;;;;25.20;20.65;;;;;;;4.29;100.00;97199.22;5087567;28;20406;-66
2023/01/04 07:19:13;;;;;;;21.92;18.77;;;;;;;4.23;100.00;97202.09;5073030;28;20024;-66
2023/01/04 07:21:38;;;;;;;19.02;17.08;;;;;;;4.19;100.00;97213.56;5084437;28;20498;-66
2023/01/04 07:24:04;;;;;;;17.48;15.65;;;;;;;4.12;100.00;97202.53;5086600;28;20043;-65
2023/01/04 07:26:29;;;;;;;19.10;15.35;;;;;;;4.05;100.00;97200.25;5081904;28;20038;-66
2023/01/04 07:31:38;;;;;;;16.70;13.75;;;;;;;4.03;100.00;97208.16;5073453;28;20031;-63
2023/01/04 07:34:04;;;;;;;12.93;11.73;;;;;;;4.02;100.00;97209.06;5086955;28;20040;-66
2023/01/04 07:36:29;;;;;;;13.57;11.80;;;;;;;3.96;100.00;97204.94;5085871;28;20071;-64
2023/01/04 07:38:54;;;;;;;16.98;12.90;;;;;;;3.91;100.00;97200.84;5089922;28;20085;-64
2023/01/04 07:41:20;;;;;;;18.17;13.63;;;;;;;3.86;100.00;97214.03;5081652;28;20044;-67
2023/01/04 07:43:45;;;;;;;22.58;14.98;;;;;;;3.78;100.00;97206.56;5087212;28;20042;-64
2023/01/04 07:46:11;;;;;;;15.32;13.65;;;;;;;3.73;100.00;97218.91;5083477;28;20033;-64
2023/01/04 07:48:36;;;;;;;14.88;13.10;;;;;;;3.68;100.00;97219.13;5081014;28;20090;-67
2023/01/04 07:51:01;;;;;;;19.85;17.88;;;;;;;3.67;100.00;97224.38;5087606;28;20046;-66
2023/01/04 07:53:27;;;;;;;25.67;20.55;;;;;;;3.66;100.00;97212.25;5088601;28;20050;-77
2023/01/04 07:55:58;;;;;;;40.28;34.38;;;;;;;3.63;100.00;97223.63;5088524;28;20033;-73
2023/01/04 07:58:25;;;;;;;44.13;32.58;;;;;;;3.57;100.00;97224.75;5084773;28;20032;-73
2023/01/04 08:00:50;;;;;;;31.42;26.13;;;;;;;3.52;100.00;97226.66;5084947;28;20032;-70
2023/01/04 08:03:16;;;;;;;14.38;13.05;;;;;;;3.47;100.00;97225.19;5087959;28;20028;-74
2023/01/04 08:05:41;;;;;;;15.05;13.65;;;;;;;3.45;100.00;97220.00;5083232;28;20127;-76
2023/01/04 08:08:08;;;;;;;32.53;29.13;;;;;;;3.48;100.00;97226.88;5086525;28;20116;-77
2023/01/04 08:10:33;;;;;;;34.65;31.25;;;;;;;3.48;100.00;97226.88;5070083;28;20050;-72
2023/01/04 08:12:59;;;;;;;28.77;26.00;;;;;;;3.43;100.00;97224.44;5086662;28;20126;-67
2023/01/04 08:15:25;;;;;;;24.02;21.67;;;;;;;3.45;100.00;97222.63;5086262;28;20032;-66
2023/01/04 08:17:51;;;;;;;31.20;28.13;;;;;;;3.46;100.00;97224.31;5086103;28;20036;-66
2023/01/04 08:20:17;;;;;;;37.58;33.70;;;;;;;3.42;100.00;97218.38;5088106;28;20435;-66
2023/01/04 08:22:42;;;;;;;31.88;28.55;;;;;;;3.39;100.00;97226.31;5086529;28;20032;-67
2023/01/04 08:25:08;;;;;;;27.15;24.25;;;;;;;3.37;100.00;97225.50;5084994;28;20040;-65
2023/01/04 08:27:33;;;;;;;23.15;21.00;;;;;;;3.39;100.00;97230.69;5071815;28;20052;-67
2023/01/04 08:29:59;;;;;;;24.58;21.55;;;;;;;3.39;100.00;97234.09;5080904;28;20074;-65
2023/01/04 08:32:24;;;;;;;24.52;21.98;;;;;;;3.40;100.00;97235.81;5081060;28;20028;-74
2023/01/04 08:34:50;;;;;;;27.20;23.85;;;;;;;3.44;100.00;97247.81;5072639;28;20038;-74
2023/01/04 08:37:15;;;;;;;26.63;22.15;;;;;;;3.64;100.00;97238.34;5070471;28;20071;-72
2023/01/04 08:39:40;;;;;;;25.58;16.70;;;;;;;3.52;100.00;97246.66;5087253;28;20097;-73
2023/01/04 08:42:06;;;;;;;21.38;19.17;;;;;;;3.46;100.00;97239.94;5089318;28;20058;-73
2023/01/04 08:44:33;;;;;;;21.77;19.75;;;;;;;3.49;100.00;97246.78;5089599;28;20035;-73
2023/01/04 08:46:59;;;;;;;20.38;18.27;;;;;;;3.54;100.00;97239.63;5090015;28;20549;-75
2023/01/04 08:49:24;;;;;;;19.05;17.13;;;;;;;3.52;100.00;97244.06;5074295;28;20111;-74
2023/01/04 08:51:50;;;;;;;20.33;18.02;;;;;;;3.58;100.00;97249.03;5079574;28;20061;-65
2023/01/04 08:54:16;;;;;;;19.60;16.88;;;;;;;3.60;100.00;97251.56;5088349;28;20024;-66
2023/01/04 08:56:42;;;;;;;16.60;15.13;;;;;;;3.60;100.00;97252.41;5090062;28;20056;-65
2023/01/04 08:59:09;;;;;;;25.98;19.00;;;;;;;3.56;100.00;97251.69;5085912;28;20029;-65
2023/01/04 09:01:35;;;;;;;23.02;19.77;;;;;;;3.55;100.00;97260.44;5078755;28;20039;-65
2023/01/04 09:04:00;;;;;;;35.20;23.23;;;;;;;3.59;100.00;97253.31;5087051;28;20093;-65
2023/01/04 09:06:26;;;;;;;52.90;34.67;;;;;;;3.57;100.00;97245.59;5089537;28;20115;-65
2023/01/04 09:08:51;;;;;;;64.85;40.15;;;;;;;3.58;100.00;97259.44;5089306;28;20040;-68
2023/01/04 09:11:20;;;;;;;51.30;37.60;;;;;;;3.60;100.00;97249.81;5089657;28;20486;-67
2023/01/04 09:13:46;;;;;;;49.38;35.78;;;;;;;3.59;100.00;97245.50;5089180;28;20024;-67
2023/01/04 09:16:14;;;;;;;53.50;39.03;;;;;;;3.66;100.00;97240.91;5089128;28;20028;-67
2023/01/04 09:18:40;;;;;;;41.92;37.40;;;;;;;3.68;100.00;97246.91;5087698;28;20035;-67
2023/01/04 09:21:07;;;;;;;37.72;32.92;;;;;;;3.68;100.00;97257.31;5088735;28;20044;-68
2023/01/04 09:23:33;;;;;;;35.10;31.38;;;;;;;3.73;100.00;97247.56;5087613;28;20401;-67
2023/01/04 09:25:59;;;;;;;36.83;30.25;;;;;;;3.75;100.00;97240.53;5082609;28;20165;-67
2023/01/04 09:28:25;;;;;;;36.47;31.67;;;;;;;3.73;100.00;97243.22;5088222;28;20047;-66
2023/01/04 09:30:50;;;;;;;37.97;32.53;;;;;;;3.75;100.00;97242.31;5089655;28;20390;-66
2023/01/04 09:33:16;;;;;;;35.75;32.05;;;;;;;3.78;100.00;97247.38;5071480;28;20040;-67
2023/01/04 09:35:41;;;;;;;36.30;32.40;;;;;;;3.77;100.00;97238.75;5069790;28;20513;-66
2023/01/04 09:38:06;;;;;;;33.95;30.40;;;;;;;3.87;100.00;97241.81;5069274;28;20103;-67
2023/01/04 09:40:52;;;;;;;36.40;30.38;;;;;;;4.40;100.00;97240.47;5069507;28;20027;-67
2023/01/04 09:43:21;;;;;;;44.10;30.65;;;;;;;4.99;100.00;97245.75;5081974;28;20024;-67
2023/01/04 09:45:51;;;;;;;35.97;30.77;;;;;;;5.51;100.00;97243.44;5082667;28;20032;-66
2023/01/04 09:48:23;;;;;;;33.88;26.75;;;;;;;5.73;100.00;97240.63;5076647;28;20040;-66
2023/01/04 09:51:03;;;;;;;34.08;30.10;;;;;;;6.02;100.00;97241.84;5088213;28;20047;-65
2023/01/04 09:53:39;;;;;;;23.77;21.35;;;;;;;6.34;100.00;97250.81;5069396;28;20036;-65
2023/01/04 09:56:09;;;;;;;19.23;16.13;;;;;;;6.55;100.00;97249.72;5069338;28;20032;-65
2023/01/04 09:58:38;;;;;;;18.80;16.52;;;;;;;6.74;100.00;97243.50;5069479;28;20040;-65
2023/01/04 10:01:20;;;;;;;21.55;19.38;;;;;;;6.96;100.00;97245.88;5069510;28;20036;-65
2023/01/04 10:04:05;;;;;;;13.63;12.23;;;;;;;7.08;100.00;97251.38;5084105;28;20036;-66
2023/01/04 10:06:32;;;;;;;16.30;14.77;;;;;;;7.24;100.00;97249.63;5069337;28;20544;-66
2023/01/04 10:09:02;;;;;;;10.73;9.18;;;;;;;7.45;100.00;97258.09;5069665;28;20021;-67
2023/01/04 10:12:05;;;;;;;14.75;9.65;;;;;;;7.79;100.00;97260.63;5069685;28;20033;-68
2023/01/04 10:14:45;;;;;;;9.27;6.53;;;;;;;8.11;100.00;97263.19;5069561;28;20131;-67
2023/01/04 10:17:10;;;;;;;8.10;7.43;;;;;;;8.51;100.00;97260.06;5086748;28;20050;-67
2023/01/04 10:20:00;;;;;;;7.20;6.68;;;;;;;8.80;100.00;97259.25;5088888;28;20040;-67
2023/01/04 10:22:31;;;;;;;5.75;5.25;;;;;;;8.93;98.12;97254.97;5069367;28;20064;-67
2023/01/04 10:25:06;;;;;;;6.22;5.63;;;;;;;9.12;98.69;97254.66;5069038;28;20037;-66
2023/01/04 10:27:43;;;;;;;6.53;4.97;;;;;;;9.34;99.39;97250.72;5068849;28;20043;-67
2023/01/04 10:30:28;;;;;;;4.45;4.15;;;;;;;9.53;95.05;97250.41;5088005;28;20059;-66
2023/01/04 10:33:27;;;;;;;4.10;3.80;;;;;;;9.38;93.33;97252.19;5078876;28;20036;-67
2023/01/04 10:35:53;;;;;;;3.83;3.50;;;;;;;9.28;91.06;97241.44;5081567;28;20515;-67
2023/01/04 10:38:26;;;;;;;3.72;3.22;;;;;;;9.14;88.67;97239.66;5092200;28;20511;-66
2023/01/04 10:40:56;;;;;;;3.83;3.53;;;;;;;9.12;91.74;97232.81;5077956;28;20101;-67
2023/01/04 10:43:24;;;;;;;3.28;2.97;;;;;;;9.16;88.99;97229.88;5085362;28;20036;-67
2023/01/04 10:45:55;;;;;;;3.47;3.20;;;;;;;9.28;88.36;97228.31;5085908;28;20596;-66
2023/01/04 10:48:41;;;;;;;3.25;3.05;;;;;;;9.37;88.19;97231.28;5092638;28;20040;-65
2023/01/04 10:51:07;;;;;;;;;;;;;;;9.41;86.23;97217.84;5078974;28;20517;-65
2023/01/04 10:53:36;;;;;;;;;;;;;;;9.57;87.13;97212.47;5091812;28;19947;-64
2023/01/04 10:56:31;;;;;;;3.40;3.20;;;;;;;9.67;86.08;97215.34;5090197;28;19999;-64
2023/01/04 10:59:05;;;;;;;7.15;3.50;;;;;;;9.75;83.96;97213.06;5079480;28;20036;-65
2023/01/04 11:01:37;;;;;;;4.00;3.70;;;;;;;9.80;84.88;97198.75;5091360;28;20115;-65
2023/01/04 11:04:02;;;;;;;4.82;3.65;;;;;;;9.81;84.24;97203.94;5090783;28;20127;-65
2023/01/04 11:06:41;;;;;;;4.40;4.00;;;;;;;9.84;84.01;97205.53;5090894;28;20466;-66
2023/01/04 11:09:14;;;;;;;4.82;3.38;;;;;;;9.85;85.56;97204.59;5088663;28;20397;-66
2023/01/04 11:11:43;;;;;;;4.88;4.47;;;;;;;10.05;87.38;97198.00;5090654;28;20111;-65
2023/01/04 11:14:09;;;;;;;5.55;5.05;;;;;;;10.32;85.16;97192.69;5087957;28;20032;-66
2023/01/04 11:16:36;;;;;;;6.03;4.78;;;;;;;10.18;84.84;97195.38;5089773;28;20024;-65
2023/01/04 11:19:04;;;;;;;5.38;4.45;;;;;;;10.19;87.35;97189.19;5066951;28;20502;-66
2023/01/04 11:21:36;;;;;;;5.72;5.22;;;;;;;10.40;82.31;97188.69;5084563;28;20081;-66
2023/01/04 11:24:05;;;;;;;5.80;5.40;;;;;;;10.48;80.51;97185.56;5078926;28;20032;-65
2023/01/04 11:26:40;;;;;;;6.22;5.30;;;;;;;10.28;79.13;97187.72;5084410;28;20032;-74
2023/01/04 11:29:23;;;;;;;6.80;5.95;;;;;;;10.06;81.73;97169.88;5091206;28;20034;-65
2023/01/04 11:31:55;;;;;;;6.63;6.03;;;;;;;10.23;82.66;97179.28;5077605;28;20089;-64
2023/01/04 11:34:55;;;;;;;6.70;6.13;;;;;;;10.20;81.93;97179.50;5077761;28;20047;-65
2023/01/04 11:37:28;;;;;;;6.18;5.63;;;;;;;10.38;81.70;97178.25;5071525;28;20111;-64
2023/01/04 11:40:18;;;;;;;7.30;5.90;;;;;;;10.69;79.47;97167.44;5071261;28;20082;-64
2023/01/04 11:42:49;;;;;;;5.78;5.28;;;;;;;10.79;78.76;97173.75;5083469;28;20647;-66
2023/01/04 11:45:23;;;;;;;5.00;4.65;;;;;;;10.95;78.72;97167.41;5091287;28;20387;-74
2023/01/04 11:47:56;;;;;;;5.80;5.13;;;;;;;10.97;76.51;97174.25;5074750;28;20039;-63
2023/01/04 11:50:41;;;;;;;5.63;5.13;;;;;;;10.76;79.00;97173.97;5089109;28;20502;-63
2023/01/04 11:53:28;;;;;;;6.22;5.72;;;;;;;10.75;80.34;97167.84;5090009;28;20032;-63
2023/01/04 11:56:21;;;;;;;6.22;5.40;;;;;;;10.81;78.41;97171.00;5077540;28;20032;-63
2023/01/04 11:59:07;;;;;;;5.88;5.07;;;;;;;10.95;79.03;97172.69;5078768;28;20110;-64
2023/01/04 12:01:36;;;;;;;7.10;4.65;;;;;;;10.92;75.30;97178.16;5079117;28;20032;-64
2023/01/04 12:04:08;;;;;;;4.82;4.43;;;;;;;10.85;78.33;97177.75;5081284;28;20052;-65
2023/01/04 12:06:34;;;;;;;5.75;5.25;;;;;;;11.09;77.35;97171.72;5085118;28;20036;-74
2023/01/04 12:08:59;;;;;;;5.72;5.20;;;;;;;11.12;76.56;97179.41;5079392;28;20459;-74
2023/01/04 12:11:29;;;;;;;5.82;5.32;;;;;;;10.89;77.71;97174.78;5090854;28;20047;-74
2023/01/04 12:13:57;;;;;;;5.25;4.75;;;;;;;11.05;79.34;97173.72;5090834;28;20032;-74
2023/01/04 12:16:44;;;;;;;6.43;5.82;;;;;;;11.00;77.75;97163.50;5090052;28;20020;-74
2023/01/04 12:19:14;;;;;;;6.90;6.20;;;;;;;11.20;74.87;97165.69;5090559;28;20107;-74
2023/01/04 12:21:43;;;;;;;6.60;6.00;;;;;;;10.87;77.08;97168.78;5077476;28;20035;-66
2023/01/04 12:24:08;;;;;;;4.90;4.50;;;;;;;10.72;75.94;97167.22;5090398;28;20062;-64
2023/01/04 12:26:40;;;;;;;6.90;5.18;;;;;;;10.77;76.16;97165.13;5090834;28;20056;-65
2023/01/04 12:29:21;;;;;;;5.95;5.35;;;;;;;10.68;75.82;97166.59;5090225;28;20425;-65
2023/01/04 12:31:47;;;;;;;6.15;5.30;;;;;;;10.72;77.10;97164.56;5089506;28;20391;-65